WMKN/TGG METAR and TAF weather

Enter ICAO airport designator
Station Type Date Time Source
WMKN METAR 2020/04/07 16:00 UTC NOAA

WMKN 071600Z 00000KT 9999 FEW022 28/26 Q1011


Station Type Date Time Source
WMKN Decoded METAR 2020/04/07 16:00 UTC NOAA

Station name not available
Apr 07, 2020 - 12:00 PM EDT / 2020.04.07 1600 UTC
Wind: Calm:0
Visibility: greater than 7 mile(s):0
Sky conditions: mostly clear
Temperature: 82 F (28 C)
Dew Point: 78 F (26 C)
Relative Humidity: 88%
Pressure (altimeter): 29.85 in. Hg (1011 hPa)
ob: WMKN 071600Z 00000KT 9999 FEW022 28/26 Q1011
cycle: 16

Station Type Date Time Source
WMKN TAF 2020/04/07 12:00 UTC NOAA

TAF WMKN 071100Z 0712/0812 VRB03KT 9999 FEW022
BECMG 0802/0804 06006KT FEW018

Example: see airport list